Time;durP1;ratioP1;P1;durP2;ratioP2;P2;SDS_P1;SDS_P2;PMS_P1;PMS_P2;Temp;Humidity;BMP_temperature;BMP_pressure;BME280_temperature;BME280_humidity;BME280_pressure;Samples;Min_cycle;Max_cycle;Signal;HPM_P1;HPM_P2
2024/04/20 00:01:08;;;;;;;7.37;3.40;;;7.80;99.90;;;;;;6527873;22;20504;-71
2024/04/20 00:03:39;;;;;;;9.63;3.10;;;7.80;99.90;;;;;;6527294;21;20452;-69
2024/04/20 00:06:08;;;;;;;4.90;3.30;;;7.80;99.90;;;;;;6527348;22;20501;-69
2024/04/20 00:08:37;;;;;;;5.57;3.93;;;7.80;99.90;;;;;;6527219;22;20505;-70
2024/04/20 00:11:06;;;;;;;7.57;3.07;;;7.80;99.90;;;;;;6527313;22;20448;-72
2024/04/20 00:13:37;;;;;;;5.30;3.40;;;7.80;99.90;;;;;;6527703;21;20560;-70
2024/04/20 00:16:05;;;;;;;5.27;3.40;;;7.90;99.90;;;;;;6526855;22;20464;-71
2024/04/20 00:18:34;;;;;;;11.27;3.90;;;7.80;99.90;;;;;;6527646;22;20953;-70
2024/04/20 00:21:05;;;;;;;5.40;3.43;;;7.70;99.90;;;;;;6527211;22;20843;-69
2024/04/20 00:23:34;;;;;;;4.57;2.57;;;7.80;99.90;;;;;;6526803;21;20961;-69
2024/04/20 00:26:05;;;;;;;3.53;2.83;;;7.80;99.90;;;;;;6526590;22;20841;-70
2024/04/20 00:28:34;;;;;;;5.47;2.17;;;7.80;99.90;;;;;;6527293;22;20464;-70
2024/04/20 00:31:04;;;;;;;3.47;2.07;;;7.70;99.90;;;;;;6526805;22;20991;-70
2024/04/20 00:33:32;;;;;;;3.60;1.70;;;7.80;99.90;;;;;;6527205;21;20500;-70
2024/04/20 00:36:01;;;;;;;4.10;3.03;;;7.70;99.90;;;;;;6526621;22;20445;-70
2024/04/20 00:38:32;;;;;;;3.73;2.00;;;7.70;99.90;;;;;;6526624;22;20504;-70
2024/04/20 00:41:01;;;;;;;3.10;2.27;;;7.60;99.90;;;;;;6526639;22;20453;-70
2024/04/20 00:43:30;;;;;;;2.30;1.73;;;7.60;99.90;;;;;;6526878;21;20985;-70
2024/04/20 00:45:59;;;;;;;1.90;1.40;;;7.60;99.90;;;;;;6526488;22;20504;-69
2024/04/20 00:48:29;;;;;;;4.30;2.03;;;7.60;99.90;;;;;;6526681;22;20523;-70
2024/04/20 00:50:57;;;;;;;6.40;2.10;;;7.60;99.90;;;;;;6526690;22;20495;-70
2024/04/20 00:53:27;;;;;;;3.13;1.60;;;7.60;99.90;;;;;;6526280;21;20569;-70
2024/04/20 00:55:59;;;;;;;2.83;1.43;;;7.60;99.90;;;;;;6525615;22;20452;-70
2024/04/20 00:58:29;;;;;;;3.20;2.30;;;7.60;99.90;;;;;;6526364;22;20464;-70
2024/04/20 01:00:58;;;;;;;3.00;1.47;;;7.60;99.90;;;;;;6526440;22;20503;-70
2024/04/20 01:03:28;;;;;;;2.80;1.77;;;7.60;99.90;;;;;;6525869;21;20501;-71
2024/04/20 01:05:57;;;;;;;3.07;2.00;;;7.60;99.90;;;;;;6525955;22;20459;-71
2024/04/20 01:08:26;;;;;;;3.10;2.00;;;7.60;99.90;;;;;;6526199;22;20770;-70
2024/04/20 01:10:54;;;;;;;2.13;1.47;;;7.60;99.90;;;;;;6526385;22;20457;-71
2024/04/20 01:13:30;;;;;;;2.97;1.97;;;7.60;99.90;;;;;;6526491;21;20507;-70
2024/04/20 01:15:58;;;;;;;2.73;1.83;;;7.50;99.90;;;;;;6525678;22;20456;-71
2024/04/20 01:18:27;;;;;;;4.37;2.20;;;7.50;99.90;;;;;;6526678;22;20512;-70
2024/04/20 01:20:55;;;;;;;2.00;1.50;;;7.50;99.90;;;;;;6526351;22;20501;-71
2024/04/20 01:23:22;;;;;;;6.70;2.40;;;7.50;99.90;;;;;;6526553;21;20456;-70
2024/04/20 01:25:54;;;;;;;2.40;2.00;;;7.50;99.90;;;;;;6525906;22;20500;-71
2024/04/20 01:28:22;;;;;;;3.00;1.80;;;7.50;99.90;;;;;;6525726;22;20500;-70
2024/04/20 01:30:51;;;;;;;1.90;1.50;;;7.50;99.90;;;;;;6527801;22;20503;-70
2024/04/20 01:33:20;;;;;;;2.57;1.53;;;7.50;99.90;;;;;;6528245;22;20856;-70
2024/04/20 01:35:50;;;;;;;3.20;2.03;;;7.50;99.90;;;;;;6527749;22;20456;-70
2024/04/20 01:38:19;;;;;;;2.60;1.60;;;7.50;99.90;;;;;;6527952;22;20505;-71
2024/04/20 01:40:48;;;;;;;2.17;1.83;;;7.50;99.90;;;;;;6528240;22;20613;-70
2024/04/20 01:43:19;;;;;;;4.17;2.73;;;7.50;99.90;;;;;;6528053;22;20807;-70
2024/04/20 01:45:47;;;;;;;2.80;1.97;;;7.40;99.90;;;;;;6527898;22;20780;-70
2024/04/20 01:48:16;;;;;;;4.87;2.10;;;7.40;99.90;;;;;;6528120;22;20500;-70
2024/04/20 01:50:45;;;;;;;4.07;3.20;;;7.40;99.90;;;;;;6528284;22;20456;-71
2024/04/20 01:53:13;;;;;;;2.40;2.13;;;7.40;99.90;;;;;;6528925;22;20492;-71
2024/04/20 01:55:42;;;;;;;2.43;2.13;;;7.30;99.90;;;;;;6529642;21;20468;-71
2024/04/20 01:58:10;;;;;;;3.07;2.30;;;7.40;99.90;;;;;;6529842;22;20452;-70
2024/04/20 02:00:42;;;;;;;4.33;2.30;;;7.30;99.90;;;;;;6530431;22;20440;-71
2024/04/20 02:03:11;;;;;;;3.87;2.27;;;7.40;99.90;;;;;;6530951;22;20512;-71
2024/04/20 02:05:39;;;;;;;5.50;2.93;;;7.40;99.90;;;;;;6529496;21;20511;-71
2024/04/20 02:08:09;;;;;;;4.30;2.70;;;7.40;99.90;;;;;;6533761;22;20460;-70
2024/04/20 02:10:38;;;;;;;3.90;3.00;;;7.40;99.90;;;;;;6532265;22;20457;-69
2024/04/20 02:13:07;;;;;;;4.50;2.97;;;7.40;99.90;;;;;;6532171;22;20504;-70
2024/04/20 02:15:35;;;;;;;3.93;3.00;;;7.40;99.90;;;;;;6532217;21;20593;-70
2024/04/20 02:18:07;;;;;;;3.70;2.10;;;7.40;99.90;;;;;;6533433;22;20560;-70
2024/04/20 02:20:35;;;;;;;3.47;2.37;;;7.40;99.90;;;;;;6531100;22;20448;-71
2024/04/20 02:23:04;;;;;;;4.27;2.67;;;7.30;99.90;;;;;;6528088;22;20593;-70
2024/04/20 02:25:32;;;;;;;3.47;2.90;;;7.30;99.90;;;;;;6527354;21;20464;-70
2024/04/20 02:28:01;;;;;;;3.40;2.47;;;7.30;99.90;;;;;;6527957;22;20460;-71
2024/04/20 02:30:29;;;;;;;2.30;2.07;;;7.30;99.90;;;;;;6527587;22;20509;-70
2024/04/20 02:32:58;;;;;;;2.93;2.33;;;7.30;99.90;;;;;;6528058;22;20891;-70
2024/04/20 02:35:29;;;;;;;3.13;2.53;;;7.30;99.90;;;;;;6526529;21;20468;-71
2024/04/20 02:37:57;;;;;;;2.50;2.20;;;7.30;99.90;;;;;;6527331;22;20449;-72
2024/04/20 02:40:26;;;;;;;2.60;1.90;;;7.20;99.90;;;;;;6526602;22;20496;-71
2024/04/20 02:42:54;;;;;;;2.33;1.53;;;7.20;99.90;;;;;;6526191;22;20453;-71
2024/04/20 02:45:23;;;;;;;1.83;1.47;;;7.30;99.90;;;;;;6526768;21;20472;-70
2024/04/20 02:47:51;;;;;;;2.60;2.00;;;7.20;99.90;;;;;;6526664;22;20495;-71
2024/04/20 02:50:20;;;;;;;2.53;1.90;;;7.20;99.90;;;;;;6526944;22;20504;-70
2024/04/20 02:52:51;;;;;;;2.83;1.50;;;7.20;99.90;;;;;;6527429;22;20448;-70
2024/04/20 02:55:20;;;;;;;2.07;1.20;;;7.10;99.90;;;;;;6526708;21;20521;-71
2024/04/20 02:57:48;;;;;;;2.23;2.03;;;7.10;99.90;;;;;;6527096;22;21005;-70
2024/04/20 03:00:17;;;;;;;2.23;0.80;;;7.00;99.90;;;;;;6526748;22;20445;-71
2024/04/20 03:02:45;;;;;;;1.47;0.90;;;7.00;99.90;;;;;;6526992;22;20778;-71
2024/04/20 03:05:14;;;;;;;1.57;0.80;;;6.90;99.90;;;;;;6526482;21;20957;-71
2024/04/20 03:07:43;;;;;;;1.07;0.60;;;6.80;99.90;;;;;;6526976;22;20495;-69
2024/04/20 03:10:14;;;;;;;1.00;0.70;;;6.80;99.90;;;;;;6526999;22;20513;-70
2024/04/20 03:12:46;;;;;;;1.77;0.80;;;6.70;99.90;;;;;;6526664;22;20564;-70
2024/04/20 03:15:14;;;;;;;1.40;0.90;;;6.60;99.90;;;;;;6526860;21;20507;-70
2024/04/20 03:17:43;;;;;;;4.40;1.50;;;6.50;99.90;;;;;;6526811;22;20764;-70
2024/04/20 03:20:11;;;;;;;1.40;0.93;;;6.50;99.90;;;;;;6527232;22;20448;-71
2024/04/20 03:22:40;;;;;;;1.70;0.70;;;6.50;99.90;;;;;;6527475;22;20456;-70
2024/04/20 03:25:12;;;;;;;10.80;1.13;;;6.50;99.90;;;;;;6529274;21;20833;-71
2024/04/20 03:27:43;;;;;;;1.30;0.80;;;6.50;99.90;;;;;;6529512;22;20508;-71
2024/04/20 03:30:12;;;;;;;1.53;0.70;;;6.50;99.90;;;;;;6529068;22;20460;-70
2024/04/20 03:32:41;;;;;;;1.20;0.93;;;6.50;99.90;;;;;;6529157;21;20497;-70
2024/04/20 03:35:10;;;;;;;2.13;0.87;;;6.50;99.90;;;;;;6530226;21;20457;-70
2024/04/20 03:37:39;;;;;;;1.77;0.93;;;6.50;99.90;;;;;;6532005;22;20441;-70
2024/04/20 03:40:09;;;;;;;2.20;0.80;;;6.50;99.90;;;;;;6529609;22;20449;-70
2024/04/20 03:42:37;;;;;;;1.87;1.03;;;6.50;99.90;;;;;;6528404;22;20747;-70
2024/04/20 03:45:09;;;;;;;2.53;0.83;;;6.50;99.90;;;;;;6529953;21;20457;-70
2024/04/20 03:47:37;;;;;;;1.93;1.00;;;6.50;99.90;;;;;;6534279;22;20453;-70
2024/04/20 03:50:07;;;;;;;1.30;0.67;;;6.50;99.90;;;;;;6536272;22;20493;-71
2024/04/20 03:52:35;;;;;;;4.13;0.90;;;6.50;99.90;;;;;;6533178;22;20448;-70
2024/04/20 03:55:04;;;;;;;1.07;0.80;;;6.50;99.90;;;;;;6535394;21;20468;-69
2024/04/20 03:57:32;;;;;;;1.00;0.80;;;6.40;99.90;;;;;;6538203;22;20504;-70
2024/04/20 03:59:58;;;;;;;2.00;0.80;;;6.40;99.90;;;;;;6536568;22;20456;-71
2024/04/20 04:02:29;;;;;;;1.20;0.73;;;6.50;99.90;;;;;;6542524;22;20848;-71
2024/04/20 04:04:58;;;;;;;1.73;1.00;;;6.40;99.90;;;;;;6541324;21;20584;-69
2024/04/20 04:07:24;;;;;;;1.27;0.70;;;6.40;99.90;;;;;;6542072;22;20453;-70
2024/04/20 04:09:52;;;;;;;1.83;0.90;;;6.40;99.90;;;;;;6538923;22;20448;-70
2024/04/20 04:12:21;;;;;;;1.10;0.70;;;6.40;99.90;;;;;;6538053;22;20218;-70
2024/04/20 04:14:49;;;;;;;1.10;0.70;;;6.40;99.90;;;;;;6535768;21;20468;-70
2024/04/20 04:17:18;;;;;;;0.90;0.70;;;6.30;99.90;;;;;;6526687;22;20460;-70
2024/04/20 04:19:51;;;;;;;4.10;1.10;;;6.30;99.90;;;;;;6525815;22;20457;-70
2024/04/20 04:22:17;;;;;;;2.13;0.90;;;6.30;99.90;;;;;;6526306;22;20575;-71
2024/04/20 04:24:46;;;;;;;1.53;0.90;;;6.30;99.90;;;;;;6525539;21;20464;-72
2024/04/20 04:27:16;;;;;;;1.33;0.90;;;6.30;99.90;;;;;;6525873;22;20449;-70
2024/04/20 04:29:45;;;;;;;1.40;1.00;;;6.20;99.90;;;;;;6526323;22;20922;-71
2024/04/20 04:32:14;;;;;;;1.30;0.80;;;6.10;99.90;;;;;;6525907;22;20934;-70
2024/04/20 04:34:42;;;;;;;1.50;0.90;;;6.10;99.90;;;;;;6525370;21;20985;-70
2024/04/20 04:37:13;;;;;;;2.50;1.03;;;6.10;99.90;;;;;;6525949;22;20505;-72
2024/04/20 04:39:42;;;;;;;1.30;0.87;;;6.00;99.90;;;;;;6525842;22;20452;-70
2024/04/20 04:42:10;;;;;;;1.00;0.70;;;6.00;99.90;;;;;;6526198;22;20508;-70
2024/04/20 04:44:39;;;;;;;1.10;0.70;;;6.00;99.90;;;;;;6525388;21;20468;-70
2024/04/20 04:47:08;;;;;;;1.10;0.70;;;6.00;99.90;;;;;;6526204;22;20532;-70
2024/04/20 04:49:37;;;;;;;1.10;0.70;;;6.00;99.90;;;;;;6526023;22;20464;-71
2024/04/20 04:52:05;;;;;;;1.27;1.10;;;6.00;99.90;;;;;;6526342;22;20500;-71
2024/04/20 04:54:37;;;;;;;1.30;0.93;;;6.00;99.90;;;;;;6525328;21;20772;-70
2024/04/20 04:57:05;;;;;;;1.30;0.83;;;6.00;99.90;;;;;;6525894;22;20509;-70
2024/04/20 04:59:34;;;;;;;1.43;0.80;;;6.00;99.90;;;;;;6526178;22;20756;-71
2024/04/20 05:02:02;;;;;;;1.50;0.80;;;6.00;99.90;;;;;;6525931;22;20460;-71
2024/04/20 05:04:31;;;;;;;7.13;0.97;;;6.00;99.90;;;;;;6525654;21;20501;-71
2024/04/20 05:07:01;;;;;;;1.47;0.93;;;6.00;99.90;;;;;;6528195;22;20500;-70
2024/04/20 05:09:32;;;;;;;1.77;0.93;;;6.00;99.90;;;;;;6527685;22;20494;-70
2024/04/20 05:12:03;;;;;;;1.80;0.80;;;6.00;99.90;;;;;;6528034;22;20467;-70
2024/04/20 05:14:31;;;;;;;1.30;0.97;;;6.00;99.90;;;;;;6527493;21;20601;-70
2024/04/20 05:17:00;;;;;;;3.90;1.10;;;6.00;99.90;;;;;;6527805;22;20505;-70
2024/04/20 05:19:28;;;;;;;1.67;1.27;;;6.00;99.90;;;;;;6528121;22;20493;-71
2024/04/20 05:21:57;;;;;;;1.60;1.03;;;6.00;99.90;;;;;;6527470;22;20465;-70
2024/04/20 05:24:26;;;;;;;1.57;1.10;;;6.00;99.90;;;;;;6527353;21;20528;-71
2024/04/20 05:26:55;;;;;;;3.00;1.00;;;5.90;99.90;;;;;;6528012;22;20460;-70
2024/04/20 05:29:26;;;;;;;1.43;1.00;;;6.00;99.90;;;;;;6527663;22;20786;-70
2024/04/20 05:31:54;;;;;;;1.17;0.80;;;6.10;99.90;;;;;;6528124;22;20818;-71
2024/04/20 05:34:23;;;;;;;3.33;1.10;;;6.00;99.90;;;;;;6527152;21;20476;-70
2024/04/20 05:36:52;;;;;;;2.93;1.30;;;6.00;99.90;;;;;;6527932;22;20445;-69
2024/04/20 05:39:20;;;;;;;2.70;1.40;;;6.00;99.90;;;;;;6528040;22;20460;-70
2024/04/20 05:41:49;;;;;;;2.37;1.30;;;6.10;99.90;;;;;;6527570;22;20775;-69
2024/04/20 05:44:17;;;;;;;1.73;1.00;;;6.00;99.90;;;;;;6527414;21;21034;-70
2024/04/20 05:46:48;;;;;;;2.23;1.10;;;6.10;99.90;;;;;;6527517;22;20468;-70
2024/04/20 05:49:14;;;;;;;2.40;1.13;;;6.10;99.90;;;;;;6527650;22;20504;-71
2024/04/20 05:51:43;;;;;;;1.50;1.17;;;6.20;99.90;;;;;;6527660;22;20452;-70
2024/04/20 05:54:11;;;;;;;2.20;1.20;;;6.20;99.90;;;;;;6526907;21;20521;-70
2024/04/20 05:56:40;;;;;;;1.47;0.90;;;6.30;99.90;;;;;;6528048;22;20520;-71
2024/04/20 05:59:08;;;;;;;1.93;1.27;;;6.30;99.90;;;;;;6527928;22;20456;-72
2024/04/20 06:01:37;;;;;;;4.20;1.23;;;6.30;99.90;;;;;;6528076;22;20456;-69
2024/04/20 06:04:08;;;;;;;3.00;1.03;;;6.30;99.90;;;;;;6527879;21;20512;-70
2024/04/20 06:06:36;;;;;;;3.07;1.33;;;6.40;99.90;;;;;;6528344;22;20517;-70
2024/04/20 06:09:08;;;;;;;1.97;1.00;;;6.40;99.90;;;;;;6528235;22;20452;-71
2024/04/20 06:11:36;;;;;;;4.60;1.87;;;6.40;99.90;;;;;;6527609;22;20957;-69
2024/04/20 06:14:05;;;;;;;1.97;1.13;;;6.40;99.90;;;;;;6528193;21;20511;-70
2024/04/20 06:16:33;;;;;;;3.50;1.50;;;6.40;99.90;;;;;;6528210;22;20492;-70
2024/04/20 06:19:02;;;;;;;1.63;1.40;;;6.40;99.90;;;;;;6527734;22;20468;-70
2024/04/20 06:21:33;;;;;;;2.27;1.10;;;6.40;99.90;;;;;;6527988;22;20503;-71
2024/04/20 06:24:01;;;;;;;2.10;1.80;;;6.40;99.90;;;;;;6527594;21;20461;-71
2024/04/20 06:26:30;;;;;;;2.60;1.30;;;6.50;99.90;;;;;;6527818;22;20804;-71
2024/04/20 06:28:59;;;;;;;2.57;1.50;;;6.50;99.90;;;;;;6528932;22;20788;-70
2024/04/20 06:31:28;;;;;;;3.47;1.43;;;6.50;99.90;;;;;;6534748;22;20494;-70
2024/04/20 06:33:56;;;;;;;2.50;1.97;;;6.70;99.90;;;;;;6530550;21;20525;-71
2024/04/20 06:36:25;;;;;;;1.40;1.10;;;6.80;99.90;;;;;;6529118;22;20464;-71
2024/04/20 06:38:56;;;;;;;2.03;1.50;;;6.80;99.90;;;;;;6530441;22;20448;-70
2024/04/20 06:41:27;;;;;;;3.30;2.27;;;6.80;99.90;;;;;;6536489;22;20460;-71
2024/04/20 06:43:58;;;;;;;5.90;1.80;;;6.80;99.90;;;;;;6529181;21;20461;-70
2024/04/20 06:46:27;;;;;;;2.13;1.17;;;6.80;99.90;;;;;;6526928;22;20453;-71
2024/04/20 06:48:55;;;;;;;1.87;1.20;;;6.90;99.90;;;;;;6527340;22;20933;-69
2024/04/20 06:51:24;;;;;;;2.03;1.23;;;7.10;99.90;;;;;;6527076;22;20521;-71
2024/04/20 06:53:52;;;;;;;1.93;1.27;;;7.10;99.90;;;;;;6527181;21;20566;-70
2024/04/20 06:56:24;;;;;;;2.57;1.27;;;7.30;99.90;;;;;;6526634;22;20766;-70
2024/04/20 06:58:52;;;;;;;2.50;1.77;;;7.40;99.90;;;;;;6527529;22;20464;-70
2024/04/20 07:01:21;;;;;;;1.90;1.10;;;7.50;99.90;;;;;;6526944;22;20460;-71
2024/04/20 07:03:49;;;;;;;2.13;1.33;;;7.50;99.90;;;;;;6527614;21;21060;-70
2024/04/20 07:06:18;;;;;;;1.80;1.00;;;7.60;99.90;;;;;;6527194;22;20456;-70
2024/04/20 07:08:46;;;;;;;3.20;1.50;;;7.70;99.90;;;;;;6527207;22;20758;-71
2024/04/20 07:11:15;;;;;;;1.93;1.33;;;7.80;99.90;;;;;;6527170;22;20452;-71
2024/04/20 07:13:49;;;;;;;1.30;1.10;;;7.80;99.90;;;;;;6526458;21;20476;-71
2024/04/20 07:16:17;;;;;;;2.37;1.37;;;7.80;99.90;;;;;;6528009;22;20513;-70
2024/04/20 07:18:46;;;;;;;1.90;1.20;;;7.80;99.90;;;;;;6528378;22;20976;-71
2024/04/20 07:21:15;;;;;;;2.33;1.00;;;7.80;99.90;;;;;;6527660;22;20830;-70
2024/04/20 07:23:43;;;;;;;5.70;1.47;;;7.70;99.90;;;;;;6528816;21;20476;-70
2024/04/20 07:26:12;;;;;;;2.17;1.20;;;7.60;99.90;;;;;;6527618;22;20449;-70
2024/04/20 07:28:41;;;;;;;2.43;1.50;;;7.60;99.90;;;;;;6527465;22;20505;-70
2024/04/20 07:31:12;;;;;;;3.97;1.80;;;7.60;99.90;;;;;;6528165;22;20508;-70
2024/04/20 07:33:40;;;;;;;3.60;1.77;;;7.70;99.90;;;;;;6528250;21;20460;-69
2024/04/20 07:36:09;;;;;;;3.17;1.30;;;7.90;99.90;;;;;;6528030;22;20453;-70
2024/04/20 07:38:38;;;;;;;1.60;1.20;;;8.20;99.90;;;;;;6527077;22;20464;-70
2024/04/20 07:41:06;;;;;;;1.83;1.23;;;8.30;99.90;;;;;;6527034;22;21111;-70
2024/04/20 07:43:35;;;;;;;1.50;1.07;;;8.30;99.90;;;;;;6526602;21;21025;-70
2024/04/20 07:46:04;;;;;;;3.70;1.10;;;8.30;99.90;;;;;;6555706;21;20495;-71
2024/04/20 07:48:36;;;;;;;1.60;1.20;;;8.10;99.90;;;;;;6578746;21;20504;-70
2024/04/20 07:51:05;;;;;;;2.33;1.23;;;8.00;99.90;;;;;;6578266;21;20931;-70
2024/04/20 07:53:33;;;;;;;2.37;1.70;;;7.90;99.90;;;;;;6573783;21;20588;-70
2024/04/20 07:56:02;;;;;;;1.77;0.90;;;8.10;99.90;;;;;;6525994;22;20500;-71
2024/04/20 07:58:31;;;;;;;3.30;1.20;;;8.40;99.90;;;;;;6526227;22;20457;-71
2024/04/20 08:01:00;;;;;;;1.60;0.90;;;8.60;99.90;;;;;;6526320;22;20460;-71
2024/04/20 08:03:29;;;;;;;1.93;1.33;;;8.70;99.90;;;;;;6525861;21;20452;-71
2024/04/20 08:06:00;;;;;;;2.70;1.20;;;8.70;99.90;;;;;;6525814;22;20456;-71
2024/04/20 08:08:30;;;;;;;3.70;2.00;;;8.60;99.90;;;;;;6526717;22;20541;-70
2024/04/20 08:10:59;;;;;;;1.67;1.47;;;8.50;99.90;;;;;;6525978;22;20493;-70
2024/04/20 08:13:29;;;;;;;2.30;1.40;;;8.50;99.90;;;;;;6526111;21;20548;-70
2024/04/20 08:15:58;;;;;;;1.40;1.20;;;8.40;99.90;;;;;;6525586;22;20452;-71
2024/04/20 08:18:26;;;;;;;2.77;1.63;;;8.30;99.90;;;;;;6527115;22;20512;-71
2024/04/20 08:20:55;;;;;;;3.00;1.63;;;8.30;99.90;;;;;;6526569;22;20456;-71
2024/04/20 08:23:26;;;;;;;5.50;1.50;;;8.40;99.90;;;;;;6526979;21;20508;-71
2024/04/20 08:25:55;;;;;;;3.93;1.70;;;8.40;99.90;;;;;;6526408;22;20461;-70
2024/04/20 08:28:24;;;;;;;1.90;1.50;;;8.40;99.90;;;;;;6527071;22;20456;-70
2024/04/20 08:30:52;;;;;;;8.23;1.60;;;8.40;99.90;;;;;;6527977;22;20483;-70
2024/04/20 08:33:21;;;;;;;1.80;1.60;;;8.30;99.90;;;;;;6529099;21;20441;-70
2024/04/20 08:35:50;;;;;;;4.27;1.70;;;8.30;99.90;;;;;;6528046;22;20456;-70
2024/04/20 08:38:18;;;;;;;2.70;1.67;;;8.40;99.90;;;;;;6528147;21;20961;-70
2024/04/20 08:40:54;;;;;;;2.40;1.20;;;8.70;99.90;;;;;;6526959;22;20449;-70
2024/04/20 08:43:25;;;;;;;1.23;1.00;;;9.70;99.90;;;;;;6526714;21;20452;-70
2024/04/20 08:45:56;;;;;;;5.43;1.83;;;11.20;99.90;;;;;;6526075;22;20961;-70
2024/04/20 08:48:26;;;;;;;2.50;1.83;;;12.00;99.90;;;;;;6526365;22;20444;-70
2024/04/20 08:51:01;;;;;;;1.70;1.17;;;12.30;99.90;;;;;;6526050;22;20452;-70
2024/04/20 08:53:30;;;;;;;2.40;1.60;;;12.70;99.90;;;;;;6525942;21;20487;-70
2024/04/20 08:56:04;;;;;;;3.83;1.50;;;13.50;99.90;;;;;;6525633;22;20448;-70
2024/04/20 08:58:32;;;;;;;2.77;1.37;;;14.50;99.90;;;;;;6525963;22;20969;-72
2024/04/20 09:01:03;;;;;;;2.57;1.63;;;14.50;99.90;;;;;;6526438;22;20509;-70
2024/04/20 09:03:32;;;;;;;2.97;1.40;;;13.90;99.30;;;;;;6526234;21;20461;-69
2024/04/20 09:06:01;;;;;;;1.47;1.13;;;13.00;99.90;;;;;;6525886;22;20509;-70
2024/04/20 09:08:30;;;;;;;4.80;1.30;;;12.40;99.90;;;;;;6527221;22;20456;-70
2024/04/20 09:11:04;;;;;;;2.70;1.13;;;11.60;99.90;;;;;;6527644;22;20456;-70
2024/04/20 09:13:33;;;;;;;1.70;1.03;;;10.80;99.90;;;;;;6526620;21;20460;-70
2024/04/20 09:16:05;;;;;;;3.43;1.40;;;10.30;99.90;;;;;;6526620;22;20569;-71
2024/04/20 09:18:34;;;;;;;1.50;1.30;;;9.90;99.90;;;;;;6528947;22;20464;-70
2024/04/20 09:21:02;;;;;;;1.67;1.40;;;9.50;99.90;;;;;;6529435;22;20589;-72
2024/04/20 09:23:31;;;;;;;6.50;1.50;;;9.30;99.90;;;;;;6529944;21;20456;-71
2024/04/20 09:26:05;;;;;;;2.30;1.53;;;9.20;99.90;;;;;;6529520;22;20453;-70
2024/04/20 09:28:34;;;;;;;4.87;2.27;;;9.00;99.90;;;;;;6531596;22;20456;-71
2024/04/20 09:31:05;;;;;;;4.07;1.67;;;9.00;99.90;;;;;;6533979;22;20453;-69
2024/04/20 09:33:33;;;;;;;4.13;1.87;;;9.00;99.90;;;;;;6534622;21;20464;-70
2024/04/20 09:36:02;;;;;;;3.00;1.40;;;9.20;99.90;;;;;;6527945;22;20886;-70
2024/04/20 09:38:31;;;;;;;4.60;1.50;;;9.60;99.90;;;;;;6527520;22;20453;-70
2024/04/20 09:41:01;;;;;;;2.27;1.63;;;10.00;99.90;;;;;;6527763;22;20437;-71
2024/04/20 09:43:35;;;;;;;12.20;1.70;;;10.10;99.90;;;;;;6527065;21;20440;-72
2024/04/20 09:46:07;;;;;;;2.30;1.33;;;10.20;99.90;;;;;;6526394;22;20849;-69
2024/04/20 09:48:37;;;;;;;3.90;2.07;;;10.30;99.90;;;;;;6533401;22;20460;-69
2024/04/20 09:51:14;;;;;;;4.57;1.30;;;10.30;99.90;;;;;;6536961;22;20460;-70
2024/04/20 09:53:43;;;;;;;2.30;1.30;;;10.30;99.90;;;;;;6532646;21;20468;-70
2024/04/20 09:56:13;;;;;;;1.67;1.13;;;10.30;99.90;;;;;;6527159;22;20456;-70
2024/04/20 09:58:45;;;;;;;4.70;1.60;;;10.40;99.90;;;;;;6528067;22;20460;-70
2024/04/20 10:01:14;;;;;;;2.40;1.23;;;10.50;99.90;;;;;;6528102;22;21002;-70
2024/04/20 10:03:44;;;;;;;1.33;1.00;;;10.60;99.90;;;;;;6527453;21;20576;-70
2024/04/20 10:06:14;;;;;;;1.93;1.17;;;10.60;99.90;;;;;;6528157;22;20460;-71
2024/04/20 10:08:44;;;;;;;1.83;1.20;;;10.70;99.90;;;;;;6527885;22;20941;-70
2024/04/20 10:11:15;;;;;;;3.37;2.10;;;11.00;99.90;;;;;;6528396;22;21033;-70
2024/04/20 10:13:47;;;;;;;2.50;1.50;;;11.50;99.90;;;;;;6527792;21;20453;-70
2024/04/20 10:16:17;;;;;;;2.90;1.70;;;11.50;99.90;;;;;;6527574;22;20461;-69
2024/04/20 10:18:46;;;;;;;2.33;1.30;;;11.30;99.90;;;;;;6527798;22;20457;-69
2024/04/20 10:21:15;;;;;;;2.07;1.33;;;10.90;99.90;;;;;;6527605;22;20472;-70
2024/04/20 10:23:46;;;;;;;2.33;1.30;;;10.70;99.90;;;;;;6527304;21;20855;-71
2024/04/20 10:26:16;;;;;;;1.97;1.50;;;10.60;99.90;;;;;;6527104;22;20468;-69
2024/04/20 10:28:47;;;;;;;2.30;1.50;;;10.90;99.90;;;;;;6527927;22;20500;-69
2024/04/20 10:31:15;;;;;;;2.03;1.80;;;11.10;99.90;;;;;;6527727;22;20823;-72
2024/04/20 10:33:45;;;;;;;3.43;1.00;;;11.30;99.90;;;;;;6527309;21;20468;-70
2024/04/20 10:36:16;;;;;;;2.30;1.43;;;11.40;99.90;;;;;;6527362;22;20536;-70
2024/04/20 10:38:45;;;;;;;2.07;1.10;;;11.20;99.90;;;;;;6528398;22;20456;-69
2024/04/20 10:41:15;;;;;;;1.70;1.40;;;11.00;99.90;;;;;;6530256;22;20472;-70
2024/04/20 10:43:47;;;;;;;6.23;1.57;;;10.80;99.90;;;;;;6528970;21;20464;-70
2024/04/20 10:46:20;;;;;;;2.53;1.80;;;11.30;99.90;;;;;;6528639;22;20512;-70
2024/04/20 10:48:56;;;;;;;4.83;1.60;;;11.70;99.90;;;;;;6529546;22;20460;-71
2024/04/20 10:51:26;;;;;;;3.40;2.00;;;11.80;99.90;;;;;;6531560;22;20468;-70
2024/04/20 10:54:00;;;;;;;3.30;1.73;;;11.50;99.90;;;;;;6534341;21;20525;-71
2024/04/20 10:56:30;;;;;;;2.40;1.87;;;11.20;99.90;;;;;;6530323;22;20520;-70
2024/04/20 10:59:01;;;;;;;2.50;1.57;;;10.90;99.90;;;;;;6527326;22;20495;-70
2024/04/20 11:01:30;;;;;;;2.00;1.23;;;10.50;99.90;;;;;;6526677;22;20456;-71
2024/04/20 11:04:01;;;;;;;4.70;1.63;;;10.10;99.90;;;;;;6526709;21;20476;-70
2024/04/20 11:06:30;;;;;;;2.30;1.53;;;9.70;99.90;;;;;;6526825;22;20500;-71
2024/04/20 11:08:59;;;;;;;2.27;1.40;;;9.30;99.90;;;;;;6527324;22;20544;-70
2024/04/20 11:11:27;;;;;;;4.60;1.40;;;9.00;99.90;;;;;;6527137;22;20460;-70
2024/04/20 11:14:05;;;;;;;2.67;1.63;;;8.90;99.90;;;;;;6527773;21;20460;-71
2024/04/20 11:16:34;;;;;;;1.90;1.53;;;8.80;99.90;;;;;;6528446;22;20555;-70
2024/04/20 11:19:03;;;;;;;3.20;2.23;;;9.00;99.90;;;;;;6527692;22;20456;-71
2024/04/20 11:21:35;;;;;;;18.83;6.53;;;9.10;99.90;;;;;;6528199;22;20505;-69
2024/04/20 11:24:04;;;;;;;10.00;1.77;;;9.20;99.90;;;;;;6527521;21;20460;-70
2024/04/20 11:26:33;;;;;;;9.67;1.77;;;9.30;99.90;;;;;;6528869;22;20540;-69
2024/04/20 11:29:05;;;;;;;4.40;2.23;;;9.50;99.90;;;;;;6528014;22;20505;-70
2024/04/20 11:31:34;;;;;;;2.00;1.57;;;9.80;99.90;;;;;;6528051;22;20694;-70
2024/04/20 11:34:02;;;;;;;2.77;1.83;;;10.00;99.90;;;;;;6527237;21;20472;-70
2024/04/20 11:36:31;;;;;;;4.60;2.63;;;10.00;99.90;;;;;;6526807;22;20777;-70
2024/04/20 11:39:09;;;;;;;2.93;1.83;;;10.00;99.90;;;;;;6527595;22;20754;-70
2024/04/20 11:41:38;;;;;;;6.93;2.60;;;10.30;99.90;;;;;;6526482;22;20472;-70
2024/04/20 11:44:09;;;;;;;3.30;2.17;;;10.60;99.90;;;;;;6527361;21;20525;-69
2024/04/20 11:46:41;;;;;;;6.43;2.17;;;10.80;99.90;;;;;;6527859;22;20472;-70
2024/04/20 11:49:15;;;;;;;3.13;2.40;;;10.90;99.90;;;;;;6527692;22;20452;-70
2024/04/20 11:54:33;;;;;;;2.97;1.87;;;10.80;99.90;;;;;;6530510;21;20509;-69
2024/04/20 11:57:03;;;;;;;1.50;1.27;;;10.90;99.90;;;;;;6527489;22;20784;-70
2024/04/20 11:59:35;;;;;;;2.50;1.73;;;11.00;99.90;;;;;;6527887;22;21004;-69
2024/04/20 12:02:05;;;;;;;4.40;1.53;;;11.00;99.90;;;;;;6529703;22;20544;-70
2024/04/20 12:04:33;;;;;;;5.90;1.80;;;11.10;99.90;;;;;;6528781;21;20460;-69
2024/04/20 12:07:02;;;;;;;3.60;1.17;;;11.20;99.90;;;;;;6530416;22;20456;-70
2024/04/20 12:09:31;;;;;;;1.73;1.30;;;11.30;99.90;;;;;;6530918;21;20483;-69
2024/04/20 12:11:59;;;;;;;2.60;1.73;;;11.40;99.90;;;;;;6531330;22;20934;-70
2024/04/20 12:14:28;;;;;;;2.37;1.70;;;11.60;99.90;;;;;;6529842;21;20464;-70
2024/04/20 12:16:59;;;;;;;2.67;1.20;;;11.80;99.90;;;;;;6531579;22;20589;-70
2024/04/20 12:19:28;;;;;;;1.80;1.30;;;12.00;99.90;;;;;;6531315;22;20456;-70
2024/04/20 12:21:56;;;;;;;1.93;1.63;;;12.20;99.90;;;;;;6534574;22;20453;-70
2024/04/20 12:24:25;;;;;;;2.70;1.80;;;12.40;99.90;;;;;;6527389;21;20472;-70
2024/04/20 12:26:54;;;;;;;4.50;1.70;;;12.60;99.90;;;;;;6527140;22;20508;-70
2024/04/20 12:29:23;;;;;;;1.27;1.13;;;12.70;99.90;;;;;;6528409;22;21045;-70
2024/04/20 12:31:51;;;;;;;1.40;1.10;;;12.40;99.90;;;;;;6528400;22;20460;-71
2024/04/20 12:34:22;;;;;;;2.27;1.30;;;12.00;99.90;;;;;;6528314;21;20464;-70
2024/04/20 12:36:52;;;;;;;2.30;1.70;;;11.70;99.90;;;;;;6529401;22;20590;-70
2024/04/20 12:39:20;;;;;;;2.50;2.30;;;11.50;99.90;;;;;;6529297;22;20449;-70
2024/04/20 12:41:49;;;;;;;4.37;2.03;;;11.30;99.90;;;;;;6528817;22;20460;-71
2024/04/20 12:44:18;;;;;;;2.97;1.67;;;11.30;99.90;;;;;;6527117;21;20472;-70
2024/04/20 12:46:46;;;;;;;2.33;1.57;;;11.40;99.90;;;;;;6527408;22;20480;-70
2024/04/20 12:49:17;;;;;;;2.90;1.67;;;11.50;99.90;;;;;;6527719;22;20456;-70
2024/04/20 12:51:48;;;;;;;3.30;1.83;;;11.40;99.90;;;;;;6527651;22;20820;-70
2024/04/20 12:54:18;;;;;;;3.10;2.43;;;11.50;99.90;;;;;;6526990;21;20499;-71
2024/04/20 12:56:47;;;;;;;4.40;1.87;;;11.70;99.90;;;;;;6527191;22;20457;-69
2024/04/20 12:59:16;;;;;;;3.13;2.00;;;11.90;99.90;;;;;;6526673;22;20569;-69
2024/04/20 13:01:45;;;;;;;5.30;1.73;;;11.90;99.90;;;;;;6527349;22;20456;-69
2024/04/20 13:04:16;;;;;;;3.63;1.97;;;11.90;99.90;;;;;;6526236;21;20980;-70
2024/04/20 13:06:44;;;;;;;2.63;1.30;;;11.80;99.00;;;;;;6527160;22;20602;-70
2024/04/20 13:09:16;;;;;;;3.67;1.53;;;11.70;96.50;;;;;;6527124;22;21013;-70